Wetterdaten: Woche 19.06.06 - 25.06.06 (KW25)
Datum Zeit Temperatur Luftfeuchte Luftdruck Niederschlag Wind Richtung Sonne Solar Taupunkt Windchill
19.06.2006 00:00 16.6 C 95 % 1017.3 hPa 0.0 l/m 3.1 km/h (1 Bft) O-SO 0.00 h 0 W/m 15.9 C 16.6 C
19.06.2006 01:00 16.0 C 95 % 1017.4 hPa 0.0 l/m 0.2 km/h (0 Bft) O-SO 0.00 h 0 W/m 15.2 C 16.0 C
19.06.2006 02:00 15.4 C 98 % 1017.5 hPa 0.0 l/m 0.9 km/h (0 Bft) O-SO 0.00 h 0 W/m 15.1 C 15.4 C
19.06.2006 03:00 15.0 C 99 % 1017.5 hPa 0.0 l/m 0.1 km/h (0 Bft) N 0.00 h 0 W/m 14.8 C 15.0 C
19.06.2006 04:00 15.2 C 98 % 1017.5 hPa 0.0 l/m 0.8 km/h (0 Bft) SO 0.00 h 0 W/m 14.8 C 15.2 C
19.06.2006 05:00 15.8 C 96 % 1016.8 hPa 0.0 l/m 1.8 km/h (1 Bft) O-SO 0.00 h 11 W/m 15.2 C 15.8 C
19.06.2006 06:00 16.4 C 94 % 1016.0 hPa 0.0 l/m 0.3 km/h (0 Bft) W 0.17 h 43 W/m 15.5 C 16.4 C
19.06.2006 07:00 17.0 C 91 % 1016.2 hPa 0.0 l/m 0.5 km/h (0 Bft) O 0.27 h 138 W/m 15.5 C 17.0 C
19.06.2006 08:00 17.7 C 87 % 1016.2 hPa 0.0 l/m 1.1 km/h (1 Bft) W-NW 0.17 h 197 W/m 15.4 C 17.7 C
19.06.2006 09:00 18.9 C 81 % 1017.0 hPa 0.0 l/m 0.3 km/h (0 Bft) W-SW 0.37 h 224 W/m 15.6 C 18.9 C
19.06.2006 10:00 19.3 C 84 % 1017.0 hPa 0.3 l/m 2.2 km/h (1 Bft) W-NW 0.00 h 173 W/m 16.4 C 19.3 C
19.06.2006 11:00 19.5 C 86 % 1017.0 hPa 0.0 l/m 4.3 km/h (1 Bft) S-SO 0.00 h 235 W/m 17.0 C 19.5 C
19.06.2006 12:00 20.9 C 76 % 1016.8 hPa 0.0 l/m 4.4 km/h (1 Bft) S-SO 0.40 h 439 W/m 16.3 C 20.9 C
19.06.2006 13:00 22.6 C 64 % 1016.1 hPa 0.0 l/m 1.9 km/h (1 Bft) W-NW 0.90 h 657 W/m 15.5 C 22.6 C
19.06.2006 14:00 24.8 C 51 % 1015.2 hPa 0.0 l/m 5.3 km/h (1 Bft) W-NW 0.87 h 760 W/m 13.8 C 24.8 C
19.06.2006 15:00 27.3 C 42 % 1014.2 hPa 0.0 l/m 4.7 km/h (1 Bft) W-NW 1.00 h 735 W/m 13.2 C 27.3 C
19.06.2006 16:00 27.6 C 43 % 1013.8 hPa 0.0 l/m 3.0 km/h (1 Bft) W 0.40 h 370 W/m 13.9 C 27.6 C
19.06.2006 17:00 28.2 C 44 % 1013.1 hPa 0.0 l/m 2.5 km/h (1 Bft) NW 0.70 h 424 W/m 14.6 C 28.2 C
19.06.2006 18:00 27.2 C 48 % 1012.9 hPa 0.0 l/m 3.2 km/h (1 Bft) W-NW 0.30 h 237 W/m 15.2 C 27.2 C
19.06.2006 19:00 23.3 C 70 % 1014.5 hPa 0.7 l/m 1.8 km/h (1 Bft) W 0.00 h 40 W/m 17.5 C 23.3 C
19.06.2006 20:00 21.3 C 88 % 1015.5 hPa 0.0 l/m 2.2 km/h (1 Bft) S-SO 0.00 h 32 W/m 19.1 C 21.3 C
19.06.2006 21:00 20.5 C 91 % 1016.0 hPa 0.0 l/m 0.5 km/h (0 Bft) S-SO 0.03 h 9 W/m 19.0 C 20.5 C
19.06.2006 22:00 19.6 C 92 % 1016.9 hPa 0.0 l/m 1.4 km/h (1 Bft) O-SO 0.00 h 0 W/m 18.3 C 19.6 C
19.06.2006 23:00 19.1 C 91 % 1017.0 hPa 0.0 l/m 2.8 km/h (1 Bft) O-SO 0.00 h 0 W/m 17.7 C 19.1 C
20.06.2006 00:00 18.5 C 96 % 1017.5 hPa 0.0 l/m 0.9 km/h (0 Bft) O 0.00 h 0 W/m 17.8 C 18.5 C
20.06.2006 01:00 17.9 C 95 % 1017.3 hPa 0.0 l/m 0.9 km/h (0 Bft) O-SO 0.00 h 0 W/m 17.2 C 17.9 C
20.06.2006 02:00 17.4 C 96 % 1017.2 hPa 0.0 l/m 0.7 km/h (0 Bft) O 0.00 h 0 W/m 16.7 C 17.4 C
20.06.2006 03:00 17.2 C 97 % 1017.2 hPa 0.0 l/m 0.0 km/h (0 Bft) N 0.00 h 0 W/m 16.7 C 17.2 C
20.06.2006 04:00 17.2 C 97 % 1017.2 hPa 0.0 l/m 0.0 km/h (0 Bft) N 0.00 h 0 W/m 16.7 C 17.2 C
20.06.2006 05:00 17.0 C 97 % 1017.3 hPa 0.0 l/m 0.5 km/h (0 Bft) W-NW 0.00 h 8 W/m 16.5 C 17.0 C
20.06.2006 06:00 16.8 C 97 % 1017.3 hPa 0.0 l/m 0.0 km/h (0 Bft) N 0.03 h 45 W/m 16.3 C 16.8 C
20.06.2006 07:00 17.0 C 97 % 1017.3 hPa 0.0 l/m 0.0 km/h (0 Bft) N 0.00 h 100 W/m 16.5 C 17.0 C
20.06.2006 08:00 17.9 C 93 % 1017.2 hPa 0.0 l/m 0.0 km/h (0 Bft) N 0.47 h 250 W/m 16.8 C 17.9 C
20.06.2006 09:00 20.0 C 84 % 1016.9 hPa 0.0 l/m 0.7 km/h (0 Bft) O-SO 0.85 h 447 W/m 17.2 C 20.0 C
20.06.2006 10:00 22.9 C 69 % 1016.5 hPa 0.0 l/m 4.5 km/h (1 Bft) SO 1.00 h 622 W/m 16.7 C 22.9 C
20.06.2006 11:00 24.2 C 66 % 1016.4 hPa 0.0 l/m 3.7 km/h (1 Bft) S-SO 0.93 h 537 W/m 17.3 C 24.2 C
20.06.2006 12:00 26.2 C 57 % 1016.1 hPa 0.0 l/m 7.3 km/h (2 Bft) S-SO 1.00 h 723 W/m 17.1 C 26.2 C
20.06.2006 13:00 28.1 C 49 % 1014.9 hPa 0.0 l/m 5.4 km/h (1 Bft) N-NW 1.00 h 767 W/m 16.5 C 28.1 C
20.06.2006 14:00 29.0 C 47 % 1014.7 hPa 0.0 l/m 15.3 km/h (3 Bft) W 1.00 h 709 W/m 16.6 C 29.0 C
20.06.2006 15:00 28.6 C 47 % 1014.8 hPa 0.0 l/m 21.8 km/h (4 Bft) W-NW 1.00 h 609 W/m 16.0 C 28.6 C
20.06.2006 16:00 28.5 C 48 % 1014.8 hPa 0.0 l/m 16.5 km/h (3 Bft) W 0.88 h 511 W/m 16.3 C 28.5 C
20.06.2006 17:00 27.7 C 50 % 1014.9 hPa 0.0 l/m 8.1 km/h (2 Bft) W 0.27 h 268 W/m 16.3 C 27.7 C
20.06.2006 18:00 27.4 C 53 % 1014.1 hPa 0.0 l/m 4.6 km/h (1 Bft) W-NW 0.25 h 206 W/m 17.1 C 27.4 C
20.06.2006 19:00 26.5 C 56 % 1014.7 hPa 0.0 l/m 9.2 km/h (2 Bft) W 0.00 h 103 W/m 17.1 C 26.5 C
20.06.2006 20:00 25.4 C 60 % 1014.4 hPa 0.0 l/m 1.2 km/h (1 Bft) SW 0.00 h 50 W/m 17.0 C 25.4 C
20.06.2006 21:00 23.7 C 69 % 1014.3 hPa 0.0 l/m 2.6 km/h (1 Bft) O-SO 0.00 h 7 W/m 17.6 C 23.7 C
20.06.2006 22:00 22.3 C 76 % 1014.7 hPa 0.0 l/m 0.7 km/h (0 Bft) O-SO 0.00 h 0 W/m 17.8 C 22.3 C
20.06.2006 23:00 21.6 C 78 % 1014.7 hPa 0.0 l/m 2.8 km/h (1 Bft) O-SO 0.00 h 0 W/m 17.5 C 21.6 C
21.06.2006 00:00 21.1 C 80 % 1014.7 hPa 0.0 l/m 1.8 km/h (1 Bft) O-SO 0.00 h 0 W/m 17.4 C 21.1 C
21.06.2006 01:00 20.4 C 82 % 1014.5 hPa 0.0 l/m 0.7 km/h (0 Bft) O-SO 0.00 h 0 W/m 17.3 C 20.4 C
21.06.2006 02:00 20.0 C 85 % 1014.6 hPa 0.0 l/m 0.1 km/h (0 Bft) N 0.00 h 0 W/m 17.4 C 20.0 C
21.06.2006 03:00 19.7 C 85 % 1014.8 hPa 0.0 l/m 0.3 km/h (0 Bft) O 0.00 h 0 W/m 17.1 C 19.7 C
21.06.2006 04:00 19.2 C 88 % 1014.9 hPa 0.0 l/m 0.5 km/h (0 Bft) O-SO 0.00 h 0 W/m 17.1 C 19.2 C
21.06.2006 05:00 18.5 C 91 % 1015.0 hPa 0.0 l/m 3.6 km/h (1 Bft) O-SO 0.00 h 11 W/m 17.1 C 18.5 C
21.06.2006 06:00 19.1 C 86 % 1015.2 hPa 0.0 l/m 0.2 km/h (0 Bft) SW 0.12 h 56 W/m 16.7 C 19.1 C
21.06.2006 07:00 20.5 C 78 % 1015.8 hPa 0.0 l/m 1.2 km/h (1 Bft) W 0.95 h 192 W/m 16.6 C 20.5 C
21.06.2006 08:00 21.7 C 72 % 1015.6 hPa 0.0 l/m 5.9 km/h (2 Bft) W 0.98 h 362 W/m 16.4 C 21.7 C
21.06.2006 09:00 22.8 C 66 % 1015.5 hPa 0.0 l/m 27.3 km/h (4 Bft) W 1.00 h 488 W/m 16.0 C 22.8 C
21.06.2006 10:00 23.3 C 62 % 1015.4 hPa 0.0 l/m 27.9 km/h (4 Bft) W 1.00 h 617 W/m 15.7 C 23.3 C
21.06.2006 11:00 24.4 C 56 % 1014.8 hPa 0.0 l/m 24.2 km/h (4 Bft) W 1.00 h 707 W/m 15.1 C 24.4 C
21.06.2006 12:00 25.3 C 51 % 1014.1 hPa 0.0 l/m 25.5 km/h (4 Bft) W 1.00 h 766 W/m 14.4 C 25.3 C
21.06.2006 13:00 26.2 C 49 % 1014.0 hPa 0.0 l/m 25.8 km/h (4 Bft) W 1.00 h 780 W/m 14.6 C 26.2 C
21.06.2006 14:00 27.1 C 48 % 1013.6 hPa 0.0 l/m 21.8 km/h (4 Bft) W 1.00 h 770 W/m 15.1 C 27.1 C
21.06.2006 15:00 27.2 C 47 % 1012.9 hPa 0.0 l/m 24.5 km/h (4 Bft) W 1.02 h 705 W/m 14.9 C 27.2 C
21.06.2006 16:00 26.7 C 47 % 1012.9 hPa 0.0 l/m 33.1 km/h (5 Bft) W 0.80 h 575 W/m 14.5 C 26.7 C
21.06.2006 17:00 25.7 C 48 % 1012.7 hPa 0.0 l/m 27.0 km/h (4 Bft) W-NW 0.43 h 316 W/m 14.0 C 25.7 C
21.06.2006 18:00 25.2 C 50 % 1013.1 hPa 0.0 l/m 22.2 km/h (4 Bft) W 0.83 h 336 W/m 13.9 C 25.2 C
21.06.2006 19:00 25.1 C 51 % 1013.1 hPa 0.0 l/m 13.6 km/h (3 Bft) W 1.00 h 228 W/m 14.2 C 25.1 C
21.06.2006 20:00 24.3 C 54 % 1013.2 hPa 0.0 l/m 5.0 km/h (1 Bft) W 1.00 h 91 W/m 14.4 C 24.3 C
21.06.2006 21:00 22.0 C 70 % 1013.7 hPa 0.0 l/m 2.4 km/h (1 Bft) S-SO 0.27 h 19 W/m 16.2 C 22.0 C
21.06.2006 22:00 20.4 C 80 % 1014.8 hPa 0.0 l/m 2.9 km/h (1 Bft) SO 0.00 h 0 W/m 17.0 C 20.4 C
21.06.2006 23:00 19.6 C 87 % 1014.9 hPa 0.0 l/m 4.4 km/h (1 Bft) O-SO 0.00 h 0 W/m 17.3 C 19.6 C
22.06.2006 00:00 18.8 C 92 % 1015.0 hPa 0.0 l/m 5.4 km/h (1 Bft) O-SO 0.00 h 0 W/m 17.5 C 18.8 C
22.06.2006 01:00 18.5 C 93 % 1015.0 hPa 0.0 l/m 3.7 km/h (1 Bft) O-SO 0.00 h 0 W/m 17.4 C 18.5 C
22.06.2006 02:00 17.6 C 92 % 1015.1 hPa 0.0 l/m 0.5 km/h (0 Bft) O-SO 0.00 h 0 W/m 16.4 C 17.6 C
22.06.2006 03:00 17.3 C 90 % 1014.9 hPa 0.0 l/m 0.0 km/h (0 Bft) N 0.00 h 0 W/m 15.7 C 17.3 C
22.06.2006 04:00 17.1 C 91 % 1014.3 hPa 0.0 l/m 0.0 km/h (0 Bft) N 0.00 h 0 W/m 15.6 C 17.1 C
22.06.2006 05:00 17.1 C 91 % 1015.0 hPa 0.0 l/m 1.3 km/h (1 Bft) O 0.00 h 7 W/m 15.6 C 17.1 C
22.06.2006 06:00 17.8 C 86 % 1014.5 hPa 0.0 l/m 0.2 km/h (0 Bft) N-NW 0.00 h 27 W/m 15.4 C 17.8 C
22.06.2006 07:00 17.4 C 84 % 1015.1 hPa 2.0 l/m 1.9 km/h (1 Bft) S-SO 0.00 h 34 W/m 14.6 C 17.4 C
22.06.2006 08:00 16.8 C 91 % 1015.2 hPa 0.0 l/m 7.5 km/h (2 Bft) S-SO 0.00 h 64 W/m 15.3 C 16.8 C
22.06.2006 09:00 17.4 C 89 % 1015.1 hPa 0.0 l/m 2.8 km/h (1 Bft) S-SO 0.00 h 106 W/m 15.6 C 17.4 C
22.06.2006 10:00 17.7 C 84 % 1015.8 hPa 0.0 l/m 0.9 km/h (0 Bft) SO 0.00 h 87 W/m 15.0 C 17.7 C
22.06.2006 11:00 18.0 C 84 % 1016.0 hPa 0.0 l/m 1.2 km/h (1 Bft) S-SO 0.00 h 98 W/m 15.3 C 18.0 C
22.06.2006 12:00 18.4 C 82 % 1016.0 hPa 0.0 l/m 1.4 km/h (1 Bft) S-SO 0.00 h 108 W/m 15.3 C 18.4 C
22.06.2006 13:00 19.0 C 79 % 1016.0 hPa 0.0 l/m 0.1 km/h (0 Bft) W-SW 0.00 h 154 W/m 15.2 C 19.0 C
22.06.2006 14:00 19.6 C 70 % 1015.9 hPa 0.0 l/m 6.0 km/h (2 Bft) W 0.00 h 158 W/m 13.9 C 19.6 C
22.06.2006 15:00 19.9 C 65 % 1015.7 hPa 0.0 l/m 11.0 km/h (2 Bft) W 0.00 h 177 W/m 13.0 C 19.9 C
22.06.2006 16:00 20.9 C 60 % 1014.7 hPa 0.0 l/m 8.9 km/h (2 Bft) W 0.30 h 327 W/m 12.9 C 20.9 C
22.06.2006 17:00 21.7 C 57 % 1014.6 hPa 0.0 l/m 9.3 km/h (2 Bft) W 0.53 h 303 W/m 12.7 C 21.7 C
22.06.2006 18:00 22.0 C 54 % 1014.6 hPa 0.0 l/m 12.4 km/h (3 Bft) W-NW 0.63 h 310 W/m 12.4 C 22.0 C
22.06.2006 19:00 21.5 C 55 % 1014.6 hPa 0.0 l/m 24.1 km/h (4 Bft) W-NW 0.83 h 219 W/m 12.1 C 21.5 C
22.06.2006 20:00 19.6 C 60 % 1015.0 hPa 0.0 l/m 20.2 km/h (4 Bft) W-NW 0.07 h 32 W/m 11.6 C 19.6 C
22.06.2006 21:00 19.0 C 62 % 1016.0 hPa 0.0 l/m 9.6 km/h (2 Bft) W-NW 0.00 h 5 W/m 11.6 C 19.0 C
22.06.2006 22:00 18.7 C 64 % 1016.5 hPa 0.0 l/m 5.7 km/h (1 Bft) W-NW 0.00 h 0 W/m 11.8 C 18.7 C
22.06.2006 23:00 18.2 C 69 % 1017.1 hPa 0.0 l/m 1.2 km/h (1 Bft) O-SO 0.00 h 0 W/m 12.4 C 18.2 C
23.06.2006 00:00 17.8 C 72 % 1017.2 hPa 0.0 l/m 0.0 km/h (0 Bft) N 0.00 h 0 W/m 12.8 C 17.8 C
23.06.2006 01:00 17.7 C 73 % 1017.2 hPa 0.0 l/m 0.0 km/h (0 Bft) N 0.00 h 0 W/m 12.8 C 17.7 C
23.06.2006 02:00 17.4 C 77 % 1017.2 hPa 0.0 l/m 0.0 km/h (0 Bft) N 0.00 h 0 W/m 13.3 C 17.4 C
23.06.2006 03:00 17.2 C 79 % 1017.2 hPa 0.0 l/m 0.0 km/h (0 Bft) N 0.00 h 0 W/m 13.5 C 17.2 C
23.06.2006 04:00 16.9 C 81 % 1017.3 hPa 0.0 l/m 0.0 km/h (0 Bft) N 0.00 h 0 W/m 13.5 C 16.9 C
23.06.2006 05:00 16.7 C 72 % 1017.3 hPa 0.0 l/m 1.5 km/h (1 Bft) NO 0.00 h 9 W/m 11.7 C 16.7 C
23.06.2006 06:00 16.2 C 70 % 1017.4 hPa 0.0 l/m 0.1 km/h (0 Bft) N 0.10 h 55 W/m 10.8 C 16.2 C
23.06.2006 07:00 16.6 C 68 % 1017.3 hPa 0.0 l/m 1.3 km/h (1 Bft) NW 0.00 h 117 W/m 10.7 C 16.6 C
23.06.2006 08:00 17.1 C 66 % 1017.3 hPa 0.0 l/m 3.4 km/h (1 Bft) NW 0.10 h 189 W/m 10.7 C 17.1 C
23.06.2006 09:00 18.2 C 65 % 1017.1 hPa 0.0 l/m 5.5 km/h (1 Bft) NW 0.78 h 323 W/m 11.5 C 18.2 C
23.06.2006 10:00 19.7 C 61 % 1016.9 hPa 0.0 l/m 5.0 km/h (1 Bft) W-NW 0.92 h 508 W/m 11.8 C 19.7 C
23.06.2006 11:00 20.8 C 55 % 1016.8 hPa 0.0 l/m 7.9 km/h (2 Bft) NW 1.00 h 640 W/m 11.5 C 20.8 C
23.06.2006 12:00 22.2 C 49 % 1016.6 hPa 0.0 l/m 6.6 km/h (2 Bft) NW 1.00 h 751 W/m 10.8 C 22.2 C
23.06.2006 13:00 23.6 C 45 % 1016.0 hPa 0.0 l/m 5.7 km/h (1 Bft) W-NW 1.00 h 845 W/m 10.9 C 23.6 C
23.06.2006 14:00 24.7 C 43 % 1015.3 hPa 0.0 l/m 7.1 km/h (2 Bft) NW 0.90 h 778 W/m 11.1 C 24.7 C
23.06.2006 15:00 25.7 C 40 % 1015.1 hPa 0.0 l/m 6.7 km/h (2 Bft) W-NW 0.90 h 748 W/m 11.3 C 25.7 C
23.06.2006 16:00 26.9 C 38 % 1013.9 hPa 0.0 l/m 9.0 km/h (2 Bft) W-NW 1.00 h 726 W/m 11.5 C 26.9 C
23.06.2006 17:00 27.4 C 37 % 1013.9 hPa 0.0 l/m 10.0 km/h (2 Bft) W 1.00 h 599 W/m 11.6 C 27.4 C
23.06.2006 18:00 27.6 C 36 % 1013.9 hPa 0.0 l/m 8.1 km/h (2 Bft) W 0.98 h 427 W/m 11.2 C 27.6 C
23.06.2006 19:00 25.2 C 43 % 1014.2 hPa 0.0 l/m 7.5 km/h (2 Bft) W 0.07 h 123 W/m 11.6 C 25.2 C
23.06.2006 20:00 24.2 C 47 % 1014.3 hPa 0.0 l/m 2.9 km/h (1 Bft) W-NW 0.70 h 75 W/m 12.0 C 24.2 C
23.06.2006 21:00 22.6 C 49 % 1014.5 hPa 0.0 l/m 0.6 km/h (0 Bft) N 0.13 h 14 W/m 11.4 C 22.6 C
23.06.2006 22:00 20.7 C 57 % 1015.4 hPa 0.0 l/m 0.0 km/h (0 Bft) N 0.00 h 0 W/m 12.0 C 20.7 C
23.06.2006 23:00 18.8 C 67 % 1016.0 hPa 0.0 l/m 0.4 km/h (0 Bft) O 0.00 h 0 W/m 12.5 C 18.8 C
24.06.2006 00:00 17.4 C 74 % 1016.1 hPa 0.0 l/m 0.0 km/h (0 Bft) N 0.00 h 0 W/m 12.7 C 17.4 C
24.06.2006 01:00 16.4 C 80 % 1015.3 hPa 0.0 l/m 0.0 km/h (0 Bft) N 0.00 h 0 W/m 13.0 C 16.4 C
24.06.2006 02:00 16.0 C 87 % 1015.3 hPa 0.0 l/m 0.1 km/h (0 Bft) N 0.00 h 0 W/m 13.9 C 16.0 C
24.06.2006 03:00 15.0 C 89 % 1015.5 hPa 0.0 l/m 0.0 km/h (0 Bft) N 0.00 h 0 W/m 13.1 C 15.0 C
24.06.2006 04:00 14.4 C 92 % 1015.5 hPa 0.0 l/m 0.0 km/h (0 Bft) N 0.00 h 0 W/m 13.1 C 14.4 C
24.06.2006 05:00 14.2 C 92 % 1015.6 hPa 0.0 l/m 0.0 km/h (0 Bft) N 0.07 h 13 W/m 12.8 C 14.2 C
24.06.2006 06:00 14.1 C 89 % 1016.1 hPa 0.0 l/m 0.1 km/h (0 Bft) O-NO 0.17 h 63 W/m 12.3 C 14.1 C
24.06.2006 07:00 15.0 C 86 % 1016.1 hPa 0.0 l/m 0.0 km/h (0 Bft) N 0.93 h 221 W/m 12.7 C 15.0 C
24.06.2006 08:00 16.9 C 76 % 1016.2 hPa 0.0 l/m 0.8 km/h (0 Bft) N-NW 1.00 h 383 W/m 12.7 C 16.9 C
24.06.2006 09:00 19.5 C 67 % 1015.6 hPa 0.0 l/m 3.8 km/h (1 Bft) W-NW 1.00 h 525 W/m 13.2 C 19.5 C
24.06.2006 10:00 22.0 C 61 % 1014.7 hPa 0.0 l/m 5.8 km/h (2 Bft) W-NW 1.00 h 651 W/m 14.1 C 22.0 C
24.06.2006 11:00 23.8 C 57 % 1014.3 hPa 0.0 l/m 4.4 km/h (1 Bft) W 1.00 h 741 W/m 14.8 C 23.8 C
24.06.2006 12:00 25.8 C 50 % 1014.1 hPa 0.0 l/m 1.5 km/h (1 Bft) S-SO 1.00 h 800 W/m 14.7 C 25.8 C
24.06.2006 13:00 27.4 C 41 % 1013.1 hPa 0.0 l/m 4.2 km/h (1 Bft) NW 1.00 h 812 W/m 12.8 C 27.4 C
24.06.2006 14:00 29.2 C 35 % 1012.6 hPa 0.0 l/m 6.3 km/h (2 Bft) SO 1.00 h 793 W/m 12.2 C 29.2 C
24.06.2006 15:00 30.3 C 34 % 1011.6 hPa 0.0 l/m 2.7 km/h (1 Bft) O-SO 1.00 h 740 W/m 12.9 C 30.3 C
24.06.2006 16:00 31.3 C 34 % 1011.0 hPa 0.0 l/m 4.6 km/h (1 Bft) O-SO 1.00 h 647 W/m 13.6 C 31.3 C
24.06.2006 17:00 31.1 C 33 % 1010.2 hPa 0.0 l/m 3.9 km/h (1 Bft) W-NW 0.63 h 426 W/m 13.0 C 31.1 C
24.06.2006 18:00 29.6 C 39 % 1010.2 hPa 0.0 l/m 1.2 km/h (1 Bft) NW 0.13 h 174 W/m 14.3 C 29.6 C
24.06.2006 19:00 27.5 C 50 % 1010.8 hPa 0.0 l/m 1.4 km/h (1 Bft) O-SO 0.00 h 107 W/m 16.3 C 27.5 C
24.06.2006 20:00 26.4 C 53 % 1011.9 hPa 0.0 l/m 6.4 km/h (2 Bft) S-SW 0.00 h 33 W/m 16.1 C 26.4 C
24.06.2006 21:00 23.6 C 60 % 1013.9 hPa 0.3 l/m 18.3 km/h (3 Bft) S 0.00 h 2 W/m 15.2 C 23.6 C
24.06.2006 22:00 20.4 C 80 % 1014.8 hPa 0.0 l/m 5.3 km/h (1 Bft) O-SO 0.00 h 0 W/m 16.7 C 20.4 C
24.06.2006 23:00 20.0 C 79 % 1014.8 hPa 0.0 l/m 3.0 km/h (1 Bft) SO 0.00 h 0 W/m 16.2 C 20.0 C
25.06.2006 00:00 19.4 C 84 % 1014.8 hPa 0.0 l/m 0.2 km/h (0 Bft) SO 0.00 h 0 W/m 16.5 C 19.4 C
25.06.2006 01:00 18.8 C 86 % 1013.9 hPa 0.0 l/m 0.3 km/h (0 Bft) N 0.00 h 0 W/m 16.5 C 18.8 C
25.06.2006 02:00 18.7 C 88 % 1013.9 hPa 0.0 l/m 0.9 km/h (0 Bft) O-SO 0.00 h 0 W/m 16.7 C 18.7 C
25.06.2006 03:00 18.4 C 87 % 1014.0 hPa 0.0 l/m 2.5 km/h (1 Bft) O-SO 0.00 h 0 W/m 16.2 C 18.4 C
25.06.2006 04:00 18.4 C 87 % 1013.9 hPa 0.0 l/m 0.4 km/h (0 Bft) O-SO 0.00 h 0 W/m 16.2 C 18.4 C
25.06.2006 05:00 18.2 C 89 % 1013.0 hPa 0.0 l/m 0.0 km/h (0 Bft) N 0.00 h 7 W/m 16.4 C 18.2 C
25.06.2006 06:00 18.0 C 90 % 1013.0 hPa 0.0 l/m 0.0 km/h (0 Bft) N 0.07 h 46 W/m 16.3 C 18.0 C
25.06.2006 07:00 18.5 C 90 % 1012.9 hPa 0.0 l/m 0.4 km/h (0 Bft) W 0.92 h 215 W/m 16.8 C 18.5 C
25.06.2006 08:00 20.0 C 82 % 1012.7 hPa 0.0 l/m 0.9 km/h (0 Bft) NW 1.00 h 385 W/m 16.7 C 20.0 C
25.06.2006 09:00 22.0 C 70 % 1012.5 hPa 0.0 l/m 3.5 km/h (1 Bft) W 1.00 h 520 W/m 16.3 C 22.0 C
25.06.2006 10:00 23.8 C 61 % 1012.0 hPa 0.0 l/m 3.9 km/h (1 Bft) W-NW 1.00 h 643 W/m 15.7 C 23.8 C
25.06.2006 11:00 25.7 C 55 % 1011.0 hPa 0.0 l/m 6.7 km/h (2 Bft) NW 1.00 h 734 W/m 16.1 C 25.7 C
25.06.2006 12:00 27.5 C 50 % 1010.7 hPa 0.0 l/m 7.4 km/h (2 Bft) N-NW 1.00 h 786 W/m 16.0 C 27.5 C
25.06.2006 13:00 29.3 C 45 % 1009.5 hPa 0.0 l/m 4.1 km/h (1 Bft) N-NW 1.00 h 769 W/m 16.1 C 29.3 C
25.06.2006 14:00 31.0 C 40 % 1008.4 hPa 0.0 l/m 5.4 km/h (1 Bft) N-NW 0.93 h 725 W/m 15.6 C 31.0 C
25.06.2006 15:00 31.7 C 36 % 1007.8 hPa 0.0 l/m 5.3 km/h (1 Bft) NW 0.93 h 678 W/m 14.8 C 31.7 C
25.06.2006 16:00 32.0 C 32 % 1007.1 hPa 0.0 l/m 7.6 km/h (2 Bft) N-NW 0.60 h 468 W/m 13.4 C 32.0 C
25.06.2006 17:00 29.0 C 39 % 1007.5 hPa 0.0 l/m 10.5 km/h (2 Bft) W 0.00 h 80 W/m 13.5 C 29.0 C
25.06.2006 18:00 20.3 C 67 % 1009.7 hPa 7.8 l/m 30.8 km/h (5 Bft) W 0.00 h 5 W/m 12.8 C 20.3 C
25.06.2006 19:00 18.0 C 95 % 1009.0 hPa 0.0 l/m 5.2 km/h (1 Bft) O-SO 0.00 h 40 W/m 17.2 C 18.0 C
25.06.2006 20:00 18.0 C 96 % 1010.2 hPa 0.0 l/m 1.9 km/h (1 Bft) W 0.00 h 34 W/m 17.3 C 18.0 C
25.06.2006 21:00 17.7 C 96 % 1012.0 hPa 0.0 l/m 6.7 km/h (2 Bft) O-SO 0.00 h 7 W/m 17.0 C 17.7 C
25.06.2006 22:00 18.5 C 78 % 1014.1 hPa 0.0 l/m 39.3 km/h (6 Bft) W-NW 0.00 h 0 W/m 14.5 C 18.5 C
25.06.2006 23:00 17.4 C 85 % 1015.1 hPa 0.6 l/m 16.7 km/h (3 Bft) W 0.00 h 0 W/m 14.8 C 17.4 C
Min-Datum _ 24.06.06 25.06.06 25.06.06 - 19.06.06 - - - 25.06.06 24.06.06
_ Min-Zeit 05:55 16:24 17:07 - 00:01 - - - 18:26 05:55
Minimum _ 13.9 C 29 % 1006.3 hPa - 0.0 km/h (0 Bft) - - - 5.1 C 13.9 C
Max-Datum _ 25.06.06 19.06.06 20.06.06 25.06.06 25.06.06 - 20.06.06 23.06.06 19.06.06 25.06.06
_ Max-Zeit 16:35 02:45 01:16 18:24 17:58 - 08:33 13:02 21:07 16:35
Maximum _ 32.7 C 100 % 1018.2 hPa 7.8 l/m 68.8 km/h
W (8 Bft)
- 0.05 h 933 W/m 19.5 C 32.7 C
Durchschnitt _ 21.3 C 70 % 1014.8 hPa #11.7 l/m 5.5 km/h (1 Bft) W-NW #60:59 h 337 W/m 14.9 C 21.3 C
© Kaiko 2006